Time;durP1;ratioP1;P1;durP2;ratioP2;P2;SDS_P1;SDS_P2;PMS_P1;PMS_P2;Temp;Humidity;BMP_temperature;BMP_pressure;BME280_temperature;BME280_humidity;BME280_pressure;Samples;Min_cycle;Max_cycle;Signal;HPM_P1;HPM_P2
2023/03/19 00:01:02;;;;;;;;;;;;;;;11.03;58.69;100930.25;4177664;28;20028;-64
2023/03/19 00:03:04;;;;;;;;;;;;;;;11.00;58.12;100920.63;4176981;28;20050;-63
2023/03/19 00:05:07;;;;;;;;;;;;;;;11.02;58.05;100918.63;4178974;28;20015;-63
2023/03/19 00:07:09;;;;;;;;;;;;;;;11.03;57.73;100911.34;4176749;28;20031;-63
2023/03/19 00:09:11;;;;;;;;;;;;;;;11.03;57.66;100917.59;4178243;28;20024;-63
2023/03/19 00:11:14;;;;;;;;;;;;;;;11.02;57.50;100915.91;4178426;28;20019;-63
2023/03/19 00:13:16;;;;;;;;;;;;;;;11.02;57.40;100924.03;4176757;28;20008;-63
2023/03/19 00:15:18;;;;;;;;;;;;;;;11.00;57.06;100921.50;4177647;28;20007;-63
2023/03/19 00:17:20;;;;;;;;;;;;;;;11.00;56.89;100918.78;4177570;28;20019;-64
2023/03/19 00:19:22;;;;;;;;;;;;;;;11.00;57.20;100916.09;4176992;28;20015;-63
2023/03/19 00:21:24;;;;;;;;;;;;;;;11.00;56.83;100915.22;4175724;28;20457;-64
2023/03/19 00:23:26;;;;;;;;;;;;;;;10.93;56.58;100904.28;4177831;28;20071;-63
2023/03/19 00:25:28;;;;;;;;;;;;;;;10.96;56.53;100903.94;4176427;28;20011;-63
2023/03/19 00:27:32;;;;;;;;;;;;;;;10.94;56.46;100913.22;4177299;28;19999;-64
2023/03/19 00:29:34;;;;;;;;;;;;;;;10.93;56.26;100906.16;4177642;28;20015;-63
2023/03/19 00:31:36;;;;;;;;;;;;;;;10.93;56.16;100911.56;4175754;28;20557;-63
2023/03/19 00:33:38;;;;;;;;;;;;;;;10.93;56.22;100904.28;4159969;28;20020;-64
2023/03/19 00:35:42;;;;;;;;;;;;;;;10.93;55.91;100907.00;4177933;28;20035;-64
2023/03/19 00:37:44;;;;;;;;;;;;;;;10.92;55.52;100907.16;4176423;28;20004;-64
2023/03/19 00:39:46;;;;;;;;;;;;;;;10.89;55.53;100905.66;4193277;28;20019;-64
2023/03/19 00:41:50;;;;;;;;;;;;;;;10.87;55.71;100902.28;4177573;28;20041;-64
2023/03/19 00:43:54;;;;;;;;;;;;;;;10.87;55.36;100909.56;4168575;28;20023;-63
2023/03/19 00:45:56;;;;;;;;;;;;;;;10.87;55.55;100909.56;4165695;28;20040;-63
2023/03/19 00:47:58;;;;;;;;;;;;;;;10.85;55.50;100917.00;4175615;28;20051;-63
2023/03/19 00:50:00;;;;;;;;;;;;;;;10.79;55.88;100913.97;4178102;28;20019;-63
2023/03/19 00:52:02;;;;;;;;;;;;;;;10.75;56.06;100912.66;4177048;28;20023;-64
2023/03/19 00:54:05;;;;;;;;;;;;;;;10.72;55.46;100910.28;4176922;28;20027;-63
2023/03/19 00:56:07;;;;;;;;;;;;;;;10.69;55.67;100915.19;4174680;28;20027;-63
2023/03/19 00:58:10;;;;;;;;;;;;;;;10.65;55.41;100906.59;4193473;28;20015;-64
2023/03/19 01:00:14;;;;;;;;;;;;;;;10.58;55.64;100914.53;4167792;28;20056;-63
2023/03/19 01:02:16;;;;;;;;;;;;;;;10.54;55.55;100915.06;4174964;28;20459;-63
2023/03/19 01:04:18;;;;;;;;;;;;;;;10.50;55.90;100919.09;4173977;28;20373;-64
2023/03/19 01:06:20;;;;;;;;;;;;;;;10.48;55.73;100916.59;4175962;28;20031;-64
2023/03/19 01:08:23;;;;;;;;;;;;;;;10.49;55.82;100923.69;4177692;28;20080;-63
2023/03/19 01:10:25;;;;;;;;;;;;;;;10.48;55.68;100923.84;4175420;28;20023;-62
2023/03/19 01:12:26;;;;;;;;;;;;;;;10.45;56.10;100920.50;4176290;28;20023;-63
2023/03/19 01:14:28;;;;;;;;;;;;;;;10.44;56.28;100926.91;4184493;28;20015;-63
2023/03/19 01:16:33;;;;;;;;;;;;;;;10.44;56.12;100921.50;4153672;28;20062;-63
2023/03/19 01:18:35;;;;;;;;;;;;;;;10.43;56.33;100921.66;4179629;28;20461;-64
2023/03/19 01:20:38;;;;;;;;;;;;;;;10.42;56.54;100919.97;4178396;28;20012;-63
2023/03/19 01:22:41;;;;;;;;;;;;;;;10.40;56.56;100922.84;4171220;28;20502;-64
2023/03/19 01:24:43;;;;;;;;;;;;;;;10.37;56.60;100922.34;4171452;28;20024;-63
2023/03/19 01:26:45;;;;;;;;;;;;;;;10.35;56.65;100932.47;4181332;28;20011;-63
2023/03/19 01:29:07;;;;;;;;;;;;;;;10.29;56.45;100932.09;4172299;28;20072;-63
2023/03/19 01:31:09;;;;;;;;;;;;;;;10.25;57.04;100930.78;4170724;28;20043;-63
2023/03/19 01:33:40;;;;;;;;;;;;;;;10.23;56.78;100929.25;4170687;28;20335;-63
2023/03/19 01:35:51;;;;;;;;;;;;;;;10.22;57.08;100923.00;4179082;28;20079;-63
2023/03/19 01:37:55;;;;;;;;;;;;;;;10.22;57.29;100924.84;4179505;28;20027;-63
2023/03/19 01:39:57;;;;;;;;;;;;;;;10.23;56.84;100919.28;4178286;28;20012;-63
2023/03/19 01:42:01;;;;;;;;;;;;;;;10.24;56.50;100920.16;4168614;28;20044;-62
2023/03/19 01:44:25;;;;;;;;;;;;;;;10.22;56.78;100931.13;4170892;28;19952;-63
2023/03/19 01:46:46;;;;;;;;;;;;;;;10.20;56.42;100929.59;4179273;28;19996;-63
2023/03/19 01:49:01;;;;;;;;;;;;;;;10.18;56.95;100934.31;4179773;28;20367;-62
2023/03/19 01:51:04;;;;;;;;;;;;;;;10.15;57.55;100934.66;4171588;28;19936;-63
2023/03/19 01:53:26;;;;;;;;;;;;;;;10.10;57.93;100935.16;4193289;28;20012;-63
2023/03/19 01:55:44;;;;;;;;;;;;;;;10.08;57.73;100929.94;4179771;28;19928;-64
2023/03/19 01:57:54;;;;;;;;;;;;;;;10.08;57.32;100929.94;4179388;28;20418;-64
2023/03/19 02:00:19;;;;;;;;;;;;;;;10.09;57.14;100928.94;4182514;28;20027;-64
2023/03/19 02:02:22;;;;;;;;;;;;;;;10.13;57.42;100923.19;4179551;28;20015;-64
2023/03/19 02:04:32;;;;;;;;;;;;;;;10.16;57.26;100920.16;4177852;28;19929;-64
2023/03/19 02:06:36;;;;;;;;;;;;;;;10.18;56.83;100924.34;4195255;28;20530;-64
2023/03/19 02:08:38;;;;;;;;;;;;;;;10.18;56.72;100916.25;4171282;28;20031;-64
2023/03/19 02:10:41;;;;;;;;;;;;;;;10.19;57.01;100917.97;4178979;28;20288;-64
2023/03/19 02:12:43;;;;;;;;;;;;;;;10.16;57.12;100922.84;4179780;28;20044;-63
2023/03/19 02:14:45;;;;;;;;;;;;;;;10.09;58.00;100922.66;4179882;28;20024;-64
2023/03/19 02:16:47;;;;;;;;;;;;;;;10.07;58.00;100920.13;4177434;28;20023;-64
2023/03/19 02:18:49;;;;;;;;;;;;;;;10.07;57.90;100914.75;4180114;28;20623;-63
2023/03/19 02:20:55;;;;;;;;;;;;;;;10.06;58.26;100913.06;4180268;28;20580;-63
2023/03/19 02:22:59;;;;;;;;;;;;;;;10.05;58.21;100915.94;4179006;28;20016;-63
2023/03/19 02:25:02;;;;;;;;;;;;;;;10.05;57.99;100921.34;4180602;28;20450;-64
2023/03/19 02:27:06;;;;;;;;;;;;;;;10.04;58.14;100911.56;4168411;28;20032;-64
2023/03/19 02:29:09;;;;;;;;;;;;;;;10.01;58.09;100910.03;4170102;28;20020;-63
2023/03/19 02:31:14;;;;;;;;;;;;;;;10.02;58.63;100913.59;4165441;28;19929;-63
2023/03/19 02:33:17;;;;;;;;;;;;;;;10.03;58.45;100918.81;4178258;28;20016;-62
2023/03/19 02:35:19;;;;;;;;;;;;;;;10.07;58.68;100928.25;4178696;28;20498;-62
2023/03/19 02:37:22;;;;;;;;;;;;;;;10.02;58.88;100916.28;4168777;28;19978;-64
2023/03/19 02:39:26;;;;;;;;;;;;;;;10.00;59.56;100918.28;4179163;28;20027;-63
2023/03/19 02:41:28;;;;;;;;;;;;;;;9.94;59.92;100909.03;4169582;28;19929;-62
2023/03/19 02:43:31;;;;;;;;;;;;;;;9.91;59.80;100906.66;4179109;28;20092;-63
2023/03/19 02:45:33;;;;;;;;;;;;;;;9.93;59.59;100910.88;4179096;28;19929;-64
2023/03/19 02:47:36;;;;;;;;;;;;;;;9.95;59.75;100910.69;4178115;28;20107;-63
2023/03/19 02:49:38;;;;;;;;;;;;;;;9.96;59.25;100912.41;4178029;28;19928;-64
2023/03/19 02:51:42;;;;;;;;;;;;;;;9.98;59.30;100909.53;4178198;28;20696;-64
2023/03/19 02:53:44;;;;;;;;;;;;;;;9.95;59.01;100918.78;4179215;28;20027;-64
2023/03/19 02:55:47;;;;;;;;;;;;;;;9.93;59.17;100915.44;4178397;28;20027;-63
2023/03/19 02:57:49;;;;;;;;;;;;;;;9.92;59.22;100914.59;4177715;28;20111;-63
2023/03/19 02:59:52;;;;;;;;;;;;;;;9.91;59.00;100918.28;4177709;28;20031;-62
2023/03/19 03:01:54;;;;;;;;;;;;;;;9.91;59.24;100917.47;4193790;28;20023;-63
2023/03/19 03:03:56;;;;;;;;;;;;;;;9.95;59.10;100908.00;4176845;28;20028;-63
2023/03/19 03:05:58;;;;;;;;;;;;;;;9.99;59.34;100909.34;4179430;28;19932;-63
2023/03/19 03:08:01;;;;;;;;;;;;;;;9.99;59.20;100912.06;4166274;28;20012;-63
2023/03/19 03:10:04;;;;;;;;;;;;;;;9.98;59.37;100918.47;4159893;28;20020;-62
2023/03/19 03:12:08;;;;;;;;;;;;;;;9.92;59.23;100920.00;4178163;28;20389;-63
2023/03/19 03:14:10;;;;;;;;;;;;;;;9.91;59.32;100929.09;4179364;28;20439;-62
2023/03/19 03:16:14;;;;;;;;;;;;;;;9.89;59.32;100917.63;4173738;28;19929;-63
2023/03/19 03:18:18;;;;;;;;;;;;;;;9.85;59.74;100920.84;4192719;28;20038;-62
2023/03/19 03:20:21;;;;;;;;;;;;;;;9.87;59.78;100908.00;4177167;28;20051;-63
2023/03/19 03:22:23;;;;;;;;;;;;;;;9.90;59.41;100916.59;4176152;28;20343;-63
2023/03/19 03:24:25;;;;;;;;;;;;;;;9.91;59.54;100917.47;4177080;28;20020;-63
2023/03/19 03:26:27;;;;;;;;;;;;;;;9.91;59.44;100914.75;4175157;28;19956;-63
2023/03/19 03:28:31;;;;;;;;;;;;;;;9.88;58.75;100928.59;4175854;28;20388;-63
2023/03/19 03:30:33;;;;;;;;;;;;;;;9.86;58.76;100925.22;4172430;28;20017;-62
2023/03/19 03:32:36;;;;;;;;;;;;;;;9.82;58.99;100921.16;4169030;28;20426;-62
2023/03/19 03:34:38;;;;;;;;;;;;;;;9.82;58.59;100924.69;4177470;28;20008;-63
2023/03/19 03:36:41;;;;;;;;;;;;;;;9.81;58.45;100933.81;4177172;28;20712;-64
2023/03/19 03:38:43;;;;;;;;;;;;;;;9.76;58.87;100919.97;4177690;28;20016;-63
2023/03/19 03:40:45;;;;;;;;;;;;;;;9.76;58.73;100924.53;4193194;28;20015;-63
2023/03/19 03:42:48;;;;;;;;;;;;;;;9.74;59.24;100925.53;4193001;28;19962;-63
2023/03/19 03:44:50;;;;;;;;;;;;;;;9.72;58.67;100930.25;4192840;28;20026;-63
2023/03/19 03:46:52;;;;;;;;;;;;;;;9.72;58.61;100934.81;4177565;28;20629;-63
2023/03/19 03:48:55;;;;;;;;;;;;;;;9.70;58.13;100942.22;4178131;28;20015;-62
2023/03/19 03:50:58;;;;;;;;;;;;;;;9.69;58.53;100946.78;4169687;28;20393;-64
2023/03/19 03:53:03;;;;;;;;;;;;;;;9.67;58.84;100964.97;4176160;28;19960;-62
2023/03/19 03:55:05;;;;;;;;;;;;;;;9.68;59.38;100965.81;4176726;28;20035;-64
2023/03/19 03:57:08;;;;;;;;;;;;;;;9.70;58.81;100977.28;4193691;28;20011;-63
2023/03/19 03:59:10;;;;;;;;;;;;;;;9.63;58.97;100969.00;4177208;28;20003;-63
2023/03/19 04:01:13;;;;;;;;;;;;;;;9.59;59.41;100959.53;4178281;28;20043;-63
2023/03/19 04:03:16;;;;;;;;;;;;;;;9.60;59.48;100966.63;4177033;28;20008;-64
2023/03/19 04:05:19;;;;;;;;;;;;;;;9.62;59.50;100972.69;4177475;28;20353;-63
2023/03/19 04:07:21;;;;;;;;;;;;;;;9.63;59.15;100971.69;4176505;28;19990;-63
2023/03/19 04:09:30;;;;;;;;;;;;;;;9.59;59.27;100962.25;4176749;28;20023;-63
2023/03/19 04:11:32;;;;;;;;;;;;;;;9.54;59.63;100964.59;4175823;28;20020;-63
2023/03/19 04:13:35;;;;;;;;;;;;;;;9.52;59.86;100974.72;4169681;28;20457;-63
2023/03/19 04:15:38;;;;;;;;;;;;;;;9.56;60.23;100967.97;4177325;28;20047;-64
2023/03/19 04:17:41;;;;;;;;;;;;;;;9.50;60.25;100965.97;4159305;28;19929;-63
2023/03/19 04:19:43;;;;;;;;;;;;;;;9.47;60.16;100974.38;4176503;28;20024;-64
2023/03/19 04:21:47;;;;;;;;;;;;;;;9.48;60.51;100968.81;4177746;28;19964;-66
2023/03/19 04:23:49;;;;;;;;;;;;;;;9.46;60.21;100975.38;4193678;28;20032;-63
2023/03/19 04:25:51;;;;;;;;;;;;;;;9.43;60.52;100983.78;4192967;28;20047;-63
2023/03/19 04:27:53;;;;;;;;;;;;;;;9.45;60.50;100979.94;4191767;28;19929;-63
2023/03/19 04:29:55;;;;;;;;;;;;;;;9.44;60.07;100989.00;4176719;28;20016;-63
2023/03/19 04:31:58;;;;;;;;;;;;;;;9.39;60.26;100980.59;4166696;28;20024;-63
2023/03/19 04:34:01;;;;;;;;;;;;;;;9.31;60.81;100992.19;4192024;28;20368;-62
2023/03/19 04:36:03;;;;;;;;;;;;;;;9.27;60.64;100996.19;4177091;28;20031;-63
2023/03/19 04:38:06;;;;;;;;;;;;;;;9.27;60.47;100987.28;4176677;28;20019;-63
2023/03/19 04:40:09;;;;;;;;;;;;;;;9.27;60.54;100995.34;4176711;28;20016;-63
2023/03/19 04:42:13;;;;;;;;;;;;;;;9.26;60.70;100994.50;4177305;28;20015;-63
2023/03/19 04:44:24;;;;;;;;;;;;;;;9.27;61.09;100980.03;4176863;28;20116;-64
2023/03/19 04:46:26;;;;;;;;;;;;;;;9.28;61.19;100987.09;4175778;28;20023;-62
2023/03/19 04:48:28;;;;;;;;;;;;;;;9.28;61.22;100986.25;4176902;28;20023;-63
2023/03/19 04:50:30;;;;;;;;;;;;;;;9.23;61.35;100986.72;4176274;28;20020;-63
2023/03/19 04:52:32;;;;;;;;;;;;;;;9.20;61.33;100987.09;4176301;28;20055;-63
2023/03/19 04:54:36;;;;;;;;;;;;;;;9.17;60.93;100985.53;4177797;28;20008;-62
2023/03/19 04:56:38;;;;;;;;;;;;;;;9.15;60.92;100995.66;4192857;28;20027;-63
2023/03/19 04:58:40;;;;;;;;;;;;;;;9.19;60.56;100999.69;4193182;28;20027;-63
2023/03/19 05:00:45;;;;;;;;;;;;;;;9.23;60.62;101005.59;4170262;28;20024;-62
2023/03/19 05:02:50;;;;;;;;;;;;;;;9.21;60.68;101002.22;4168027;28;19964;-63
2023/03/19 05:04:52;;;;;;;;;;;;;;;9.23;60.97;100994.81;4176192;28;20027;-63
2023/03/19 05:06:55;;;;;;;;;;;;;;;9.22;60.60;100995.00;4192082;28;20431;-63
2023/03/19 05:08:58;;;;;;;;;;;;;;;9.20;60.97;100992.47;4169714;28;19924;-63
2023/03/19 05:11:02;;;;;;;;;;;;;;;9.21;61.07;100986.06;4168756;28;20000;-63
2023/03/19 05:13:11;;;;;;;;;;;;;;;9.24;61.03;100976.81;4168008;28;20051;-62
2023/03/19 05:15:18;;;;;;;;;;;;;;;9.26;61.22;100972.94;4168896;28;20023;-63
2023/03/19 05:17:29;;;;;;;;;;;;;;;9.32;61.05;100968.75;4191346;28;20008;-63
2023/03/19 05:19:42;;;;;;;;;;;;;;;9.36;61.26;100968.25;4193213;28;20027;-63
2023/03/19 05:21:44;;;;;;;;;;;;;;;9.40;61.14;100968.78;4175469;28;20412;-63
2023/03/19 05:23:51;;;;;;;;;;;;;;;9.44;60.96;100972.00;4193567;28;20023;-62
2023/03/19 05:25:53;;;;;;;;;;;;;;;9.44;60.33;100962.06;4176822;28;20485;-63
2023/03/19 05:28:08;;;;;;;;;;;;;;;9.45;60.13;100966.44;4176256;28;20458;-63
2023/03/19 05:30:11;;;;;;;;;;;;;;;9.45;60.18;100971.84;4169629;28;19975;-63
2023/03/19 05:32:13;;;;;;;;;;;;;;;9.46;59.97;100964.59;4176599;28;20003;-63
2023/03/19 05:34:15;;;;;;;;;;;;;;;9.46;59.96;100969.97;4177797;28;20016;-63
2023/03/19 05:36:17;;;;;;;;;;;;;;;9.50;60.21;100964.09;4164717;28;20027;-63
2023/03/19 05:38:30;;;;;;;;;;;;;;;9.51;59.68;100964.94;4191655;28;21536;-63
2023/03/19 05:40:41;;;;;;;;;;;;;;;9.51;59.62;100964.94;4193216;28;20036;-63
2023/03/19 05:42:55;;;;;;;;;;;;;;;9.47;59.72;100966.28;4167608;28;19996;-63
2023/03/19 05:45:03;;;;;;;;;;;;;;;9.48;60.25;100970.66;4167563;28;20027;-63
2023/03/19 05:47:14;;;;;;;;;;;;;;;9.51;59.97;100975.72;4174871;28;20104;-63
2023/03/19 05:49:21;;;;;;;;;;;;;;;9.51;59.93;100986.50;4192107;28;20031;-62
2023/03/19 05:51:24;;;;;;;;;;;;;;;9.49;60.41;100978.56;4175367;28;19979;-62
2023/03/19 05:53:26;;;;;;;;;;;;;;;9.48;60.20;100974.22;4174804;28;20035;-62
2023/03/19 05:55:58;;;;;;;;;;;;;;;9.49;60.33;100977.75;4174967;28;20015;-63
2023/03/19 05:58:00;;;;;;;;;;;;;;;9.49;59.98;100975.88;4177180;28;20031;-62
2023/03/19 06:00:05;;;;;;;;;;;;;;;9.50;60.25;100976.75;4159521;28;20032;-62
2023/03/19 06:02:07;;;;;;;;;;;;;;;9.47;60.43;100986.00;4176993;28;20008;-62
2023/03/19 06:04:10;;;;;;;;;;;;;;;9.48;60.34;100984.13;4177932;28;20020;-63
2023/03/19 06:06:12;;;;;;;;;;;;;;;9.46;60.45;100978.06;4195304;28;20543;-63
2023/03/19 06:08:18;;;;;;;;;;;;;;;9.46;60.59;100978.91;4170649;28;20007;-63
2023/03/19 06:10:52;;;;;;;;;;;;;;;9.46;60.05;100973.50;4183850;28;20015;-62
2023/03/19 06:12:54;;;;;;;;;;;;;;;9.48;59.95;100970.66;4177560;28;19933;-63
2023/03/19 06:15:27;;;;;;;;;;;;;;;9.46;59.96;100973.50;4182398;28;20015;-62
2023/03/19 06:17:28;;;;;;;;;;;;;;;9.44;59.74;100970.16;4178328;28;20027;-62
2023/03/19 06:19:35;;;;;;;;;;;;;;;9.44;59.80;100975.53;4193999;28;20015;-63
2023/03/19 06:21:38;;;;;;;;;;;;;;;9.45;60.16;100973.66;4178155;28;20040;-63
2023/03/19 06:23:40;;;;;;;;;;;;;;;9.46;60.03;100980.75;4180086;28;20024;-63
2023/03/19 06:25:43;;;;;;;;;;;;;;;9.46;59.79;100973.50;4192631;28;20036;-63
2023/03/19 06:27:46;;;;;;;;;;;;;;;9.47;59.73;100977.06;4170596;28;20478;-62
2023/03/19 06:30:00;;;;;;;;;;;;;;;9.49;59.91;100981.28;4178381;28;20100;-63
2023/03/19 06:32:09;;;;;;;;;;;;;;;9.51;59.91;100981.09;4174844;28;20027;-63
2023/03/19 06:34:15;;;;;;;;;;;;;;;9.54;59.84;100983.47;4170662;28;19929;-62
2023/03/19 06:36:18;;;;;;;;;;;;;;;9.55;59.84;100987.88;4194255;28;20022;-62
2023/03/19 06:38:20;;;;;;;;;;;;;;;9.54;59.62;100994.25;4175992;28;20247;-63
2023/03/19 06:40:22;;;;;;;;;;;;;;;9.52;60.08;100990.91;4179431;28;20568;-63
2023/03/19 06:42:23;;;;;;;;;;;;;;;9.50;59.68;100998.31;4178686;28;20039;-62
2023/03/19 06:44:26;;;;;;;;;;;;;;;9.51;59.78;100998.16;4176505;28;20027;-61
2023/03/19 06:46:28;;;;;;;;;;;;;;;9.54;59.78;100996.97;4178582;28;20043;-62
2023/03/19 06:48:31;;;;;;;;;;;;;;;9.56;59.80;101009.28;4179624;28;20023;-63
2023/03/19 06:50:33;;;;;;;;;;;;;;;9.56;59.94;101021.91;4179993;28;20019;-63
2023/03/19 06:52:35;;;;;;;;;;;;;;;9.56;60.24;101029.97;4177881;28;20344;-63
2023/03/19 06:54:37;;;;;;;;;;;;;;;9.56;59.88;101029.97;4178313;28;19935;-63
2023/03/19 06:56:39;;;;;;;;;;;;;;;9.56;59.96;101038.06;4178965;28;20365;-61
2023/03/19 06:58:41;;;;;;;;;;;;;;;9.56;60.29;101043.47;4177136;28;20015;-63
2023/03/19 07:00:43;;;;;;;;;;;;;;;9.57;60.08;101043.31;4180052;28;20031;-64
2023/03/19 07:02:45;;;;;;;;;;;;;;;9.61;60.53;101046.53;4177453;28;20032;-62
2023/03/19 07:04:48;;;;;;;;;;;;;;;9.63;60.35;101059.88;4177846;28;20031;-63
2023/03/19 07:06:50;;;;;;;;;;;;;;;9.62;60.27;101056.31;4176359;28;20546;-62
2023/03/19 07:08:52;;;;;;;;;;;;;;;9.64;60.44;101054.31;4179377;28;20063;-64
2023/03/19 07:10:54;;;;;;;;;;;;;;;9.70;60.21;101071.66;4179224;28;20019;-63
2023/03/19 07:12:56;;;;;;;;;;;;;;;9.66;60.20;101063.06;4176969;28;20390;-63
2023/03/19 07:14:58;;;;;;;;;;;;;;;9.78;60.28;101095.13;4176709;28;20035;-63
2023/03/19 07:17:00;;;;;;;;;;;;;;;9.80;60.69;101112.84;4177498;28;20027;-64
2023/03/19 07:19:02;;;;;;;;;;;;;;;9.82;60.96;101118.94;4176644;28;20478;-64
2023/03/19 07:21:06;;;;;;;;;;;;;;;9.86;61.02;101124.88;4178713;28;20067;-64
2023/03/19 07:23:07;;;;;;;;;;;;;;;9.88;61.11;101128.22;4176908;28;20565;-64
2023/03/19 07:25:10;;;;;;;;;;;;;;;9.89;60.99;101121.81;4178039;28;20103;-65
2023/03/19 07:27:12;;;;;;;;;;;;;;;9.86;61.56;101119.47;4178032;28;20011;-64
2023/03/19 07:29:16;;;;;;;;;;;;;;;9.86;62.07;101120.28;4175692;28;21259;-65
2023/03/19 07:31:18;;;;;;;;;;;;;;;9.90;61.82;101113.56;4178706;28;20442;-63
2023/03/19 07:33:20;;;;;;;;;;;;;;;9.92;61.96;101108.84;4177778;28;21575;-64
2023/03/19 07:35:22;;;;;;;;;;;;;;;9.97;62.43;101099.41;4176878;28;19935;-64
2023/03/19 07:37:26;;;;;;;;;;;;;;;9.98;62.34;101099.25;4178132;28;20020;-64
2023/03/19 07:39:28;;;;;;;;;;;;;;;10.02;62.23;101087.13;4174830;28;20027;-64
2023/03/19 07:41:30;;;;;;;;;;;;;;;10.06;61.80;101087.63;4177551;28;20020;-64
2023/03/19 07:43:32;;;;;;;;;;;;;;;10.09;61.82;101077.38;4176986;28;20100;-64
2023/03/19 07:45:34;;;;;;;;;;;;;;;10.15;62.22;101073.13;4177151;28;20015;-64
2023/03/19 07:47:36;;;;;;;;;;;;;;;10.21;62.32;101069.78;4177192;28;20016;-64
2023/03/19 07:49:38;;;;;;;;;;;;;;;10.27;62.23;101071.81;4177338;28;20024;-64
2023/03/19 07:51:40;;;;;;;;;;;;;;;10.32;62.14;101060.50;4177441;28;20028;-64
2023/03/19 07:53:43;;;;;;;;;;;;;;;10.37;62.44;101068.97;4178197;28;20023;-64
2023/03/19 07:55:45;;;;;;;;;;;;;;;10.42;61.88;101060.38;4177139;28;20027;-64
2023/03/19 07:57:47;;;;;;;;;;;;;;;10.48;61.82;101053.47;4177957;28;20023;-64
2023/03/19 07:59:49;;;;;;;;;;;;;;;10.52;62.10;101049.44;4178172;28;20019;-64
2023/03/19 08:01:51;;;;;;;;;;;;;;;10.56;61.52;101048.88;4175996;28;20530;-63
2023/03/19 08:03:53;;;;;;;;;;;;;;;10.62;61.79;101056.31;4175409;28;20356;-63
2023/03/19 08:05:55;;;;;;;;;;;;;;;10.68;61.69;101054.81;4175844;28;20331;-64
2023/03/19 08:07:57;;;;;;;;;;;;;;;10.73;61.67;101057.84;4176849;28;20019;-64
2023/03/19 08:10:01;;;;;;;;;;;;;;;10.78;61.71;101054.63;4176215;28;20019;-64
2023/03/19 08:12:03;;;;;;;;;;;;;;;10.84;61.55;101056.66;4175790;28;20028;-64
2023/03/19 08:14:05;;;;;;;;;;;;;;;10.91;61.23;101060.38;4177980;28;20015;-63
2023/03/19 08:16:07;;;;;;;;;;;;;;;10.98;60.67;101057.81;4176079;28;19992;-63
2023/03/19 08:18:09;;;;;;;;;;;;;;;11.03;60.83;101060.81;4175389;28;20004;-63
2023/03/19 08:20:12;;;;;;;;;;;;;;;11.07;60.37;101062.19;4176974;28;20044;-62
2023/03/19 08:22:14;;;;;;;;;;;;;;;11.12;60.86;101067.91;4176168;28;20028;-63
2023/03/19 08:24:16;;;;;;;;;;;;;;;11.14;60.81;101070.44;4174583;28;20036;-63
2023/03/19 08:26:19;;;;;;;;;;;;;;;11.17;61.37;101075.50;4176323;28;20011;-64
2023/03/19 08:28:21;;;;;;;;;;;;;;;11.19;61.02;101078.91;4158803;28;20032;-65
2023/03/19 08:30:23;;;;;;;;;;;;;;;11.22;61.26;101088.50;4160744;28;20032;-62
2023/03/19 08:32:25;;;;;;;;;;;;;;;11.22;61.64;101104.72;4159310;28;20019;-61
2023/03/19 08:34:27;;;;;;;;;;;;;;;11.24;62.64;101130.59;4159331;28;20024;-63
2023/03/19 08:36:29;;;;;;;;;;;;;;;11.26;63.00;101143.94;4159788;28;20035;-62
2023/03/19 08:38:31;;;;;;;;;;;;;;;11.27;63.09;101157.28;4158938;28;20027;-63
2023/03/19 08:40:33;;;;;;;;;;;;;;;11.27;63.31;101164.53;4157147;28;20024;-60
2023/03/19 08:42:40;;;;;;;;;;;;;;;11.29;62.74;101162.50;4157860;28;20028;-63
2023/03/19 08:44:42;;;;;;;;;;;;;;;11.27;62.77;101162.69;4152060;28;20015;-63
2023/03/19 08:46:44;;;;;;;;;;;;;;;11.24;63.25;101164.88;4155754;28;20015;-63
2023/03/19 08:48:46;;;;;;;;;;;;;;;11.23;63.48;101168.59;4172586;28;21299;-62
2023/03/19 08:50:51;;;;;;;;;;;;;;;11.21;63.63;101160.66;4173507;28;20028;-63
2023/03/19 08:52:54;;;;;;;;;;;;;;;11.19;64.04;101170.81;4174026;28;20051;-63
2023/03/19 08:54:56;;;;;;;;;;;;;;;11.18;63.98;101169.94;4174266;28;20028;-62
2023/03/19 08:56:59;;;;;;;;;;;;;;;11.16;65.21;101169.28;4174450;28;20383;-62
2023/03/19 08:59:03;;;;;;;;;;;;;;;11.14;66.28;101167.75;4175413;28;20028;-64
2023/03/19 09:01:06;;;;;;;;;;;;;;;11.11;68.61;101162.69;4172102;28;20023;-59
2023/03/19 09:03:08;;;;;;;;;;;;;;;11.05;69.93;101161.53;4172447;28;20024;-63
2023/03/19 09:05:10;;;;;;;;;;;;;;;11.02;71.63;101152.91;4174693;28;20051;-63
2023/03/19 09:07:14;;;;;;;;;;;;;;;11.00;74.27;101142.25;4174511;28;20096;-63
2023/03/19 09:09:17;;;;;;;;;;;;;;;11.01;75.11;101125.03;4173266;28;20023;-63
2023/03/19 09:11:19;;;;;;;;;;;;;;;11.00;76.11;101107.13;4174502;28;20015;-63
2023/03/19 09:13:21;;;;;;;;;;;;;;;11.02;76.82;101091.59;4174371;28;20031;-60
2023/03/19 09:15:24;;;;;;;;;;;;;;;11.04;76.67;101076.03;4173414;28;20023;-61
2023/03/19 09:17:27;;;;;;;;;;;;;;;11.04;76.94;101049.00;4172749;28;19940;-62
2023/03/19 09:19:29;;;;;;;;;;;;;;;11.06;77.19;101049.69;4187146;28;20019;-61
2023/03/19 09:21:31;;;;;;;;;;;;;;;11.07;77.54;101037.03;4172864;28;20036;-63
2023/03/19 09:23:33;;;;;;;;;;;;;;;11.06;77.36;101032.63;4173808;28;20024;-64
2023/03/19 09:25:36;;;;;;;;;;;;;;;11.06;77.67;101033.47;4172420;28;20019;-63
2023/03/19 09:27:38;;;;;;;;;;;;;;;11.06;77.15;101044.28;4172243;28;20029;-61
2023/03/19 09:29:48;;;;;;;;;;;;;;;11.06;76.93;101035.31;4174625;28;20023;-64
2023/03/19 09:31:51;;;;;;;;;;;;;;;11.03;77.47;101049.19;4173351;28;19950;-62
2023/03/19 09:33:53;;;;;;;;;;;;;;;11.02;76.86;101066.41;4172374;28;20032;-62
2023/03/19 09:35:56;;;;;;;;;;;;;;;11.01;77.15;101068.28;4170082;28;20028;-63
2023/03/19 09:37:58;;;;;;;;;;;;;;;11.00;77.60;101064.75;4162494;28;19929;-65
2023/03/19 09:40:03;;;;;;;;;;;;;;;10.99;77.67;101056.81;4158048;28;19933;-64
2023/03/19 09:42:10;;;;;;;;;;;;;;;10.99;78.84;101067.63;4146805;28;19967;-63
2023/03/19 09:44:13;;;;;;;;;;;;;;;10.98;79.39;101063.22;4161209;28;20021;-64
2023/03/19 09:46:16;;;;;;;;;;;;;;;10.98;78.60;101047.84;4160928;28;20411;-63
2023/03/19 09:48:27;;;;;;;;;;;;;;;10.99;78.57;101041.41;4174909;28;19936;-64
2023/03/19 09:50:39;;;;;;;;;;;;;;;11.01;77.80;101033.13;4177231;28;20370;-64
2023/03/19 09:52:47;;;;;;;;;;;;;;;11.02;77.79;101028.56;4176015;28;19928;-65
2023/03/19 09:54:53;;;;;;;;;;;;;;;11.00;77.51;101034.16;4178002;28;19938;-65
2023/03/19 09:57:03;;;;;;;;;;;;;;;11.01;76.98;101052.06;4178262;28;19929;-64
2023/03/19 09:59:12;;;;;;;;;;;;;;;11.00;77.20;101047.66;4177862;28;19924;-65
2023/03/19 10:01:22;;;;;;;;;;;;;;;10.96;77.75;101043.63;4195549;28;20274;-65
2023/03/19 10:03:37;;;;;;;;;;;;;;;10.93;79.10;101052.91;4169107;28;19988;-65
2023/03/19 10:05:47;;;;;;;;;;;;;;;10.90;79.24;101055.13;4155558;28;19936;-65
2023/03/19 10:08:09;;;;;;;;;;;;;;;10.90;79.37;101063.25;4177235;28;19925;-64
2023/03/19 10:10:24;;;;;;;;;;;;;;;10.84;79.33;101053.09;4206801;28;19925;-65
2023/03/19 10:12:41;;;;;;;;;;;;;;;10.86;80.49;101057.34;4217108;28;19931;-65
2023/03/19 10:14:52;;;;;;;;;;;;;;;10.87;80.33;101063.56;4171221;28;19948;-64
2023/03/19 10:16:57;;;;;;;;;;;;;;;10.87;80.37;101050.06;4178906;28;19929;-63
2023/03/19 10:19:09;;;;;;;;;;;;;;;10.88;79.97;101052.59;4179155;28;20036;-64
2023/03/19 10:21:12;;;;;;;;;;;;;;;10.92;79.43;101050.38;4194792;28;19928;-65
2023/03/19 10:23:35;;;;;;;;;;;;;;;10.93;78.82;101061.03;4179359;28;19999;-64
2023/03/19 10:25:38;;;;;;;;;;;;;;;10.95;78.14;101069.78;4177381;28;19960;-64
2023/03/19 10:27:43;;;;;;;;;;;;;;;10.98;78.04;101063.22;4172569;28;20046;-65
2023/03/19 10:29:46;;;;;;;;;;;;;;;10.99;79.20;101054.09;4178468;28;19935;-65
2023/03/19 10:31:52;;;;;;;;;;;;;;;11.02;79.92;101053.75;4179875;28;19928;-64
2023/03/19 10:34:10;;;;;;;;;;;;;;;11.04;79.63;101059.00;4196295;28;19936;-64
2023/03/19 10:36:14;;;;;;;;;;;;;;;11.05;79.63;101063.38;4172955;28;20028;-64
2023/03/19 10:38:18;;;;;;;;;;;;;;;11.03;80.18;101063.53;4161477;28;19933;-63
2023/03/19 10:40:22;;;;;;;;;;;;;;;11.04;80.59;101054.41;4179695;28;19929;-64
2023/03/19 10:42:44;;;;;;;;;;;;;;;11.07;81.41;101055.94;4161772;28;19983;-64